Time;durP1;ratioP1;P1;durP2;ratioP2;P2;SDS_P1;SDS_P2;PMS_P1;PMS_P2;Temp;Humidity;BMP_temperature;BMP_pressure;BME280_temperature;BME280_humidity;BME280_pressure;Samples;Min_cycle;Max_cycle;Signal;HPM_P1;HPM_P2
2022/01/27 00:01:41;;;;;;;120.28;54.63;;;;;;;;;;2110239;28;20408;-50
2022/01/27 00:02:52;;;;;;;116.65;53.47;;;;;;;;;;2114866;28;20197;-51
2022/01/27 00:04:04;;;;;;;107.80;49.97;;;;;;;;;;2118428;28;20066;-53
2022/01/27 00:05:14;;;;;;;108.93;51.97;;;;;;;;;;2123181;28;20039;-52
2022/01/27 00:06:17;;;;;;;111.70;50.20;;;;;;;;;;2121287;27;20102;-49
2022/01/27 00:07:18;;;;;;;96.95;46.97;;;;;;;;;;2121407;28;20484;-53
2022/01/27 00:08:24;;;;;;;94.82;41.50;;;;;;;;;;2123094;28;20452;-50
2022/01/27 00:09:41;;;;;;;92.45;46.30;;;;;;;;;;2116116;27;20143;-51
2022/01/27 00:10:50;;;;;;;89.63;41.70;;;;;;;;;;2114421;28;20416;-53
2022/01/27 00:11:51;;;;;;;86.55;40.00;;;;;;;;;;2117592;27;20663;-50
2022/01/27 00:12:55;;;;;;;89.47;40.90;;;;;;;;;;2115952;28;20051;-53
2022/01/27 00:13:59;;;;;;;85.05;43.70;;;;;;;;;;2114485;28;20447;-52
2022/01/27 00:15:09;;;;;;;93.03;44.28;;;;;;;;;;2117849;27;20518;-52
2022/01/27 00:16:13;;;;;;;90.82;47.30;;;;;;;;;;2122926;28;20054;-47
2022/01/27 00:17:25;;;;;;;93.10;42.05;;;;;;;;;;2123871;27;20070;-50
2022/01/27 00:18:29;;;;;;;89.65;41.47;;;;;;;;;;2116030;28;20071;-47
2022/01/27 00:19:30;;;;;;;96.93;42.45;;;;;;;;;;2114385;28;20047;-51
2022/01/27 00:20:31;;;;;;;89.10;41.88;;;;;;;;;;2118055;27;20044;-47
2022/01/27 00:21:33;;;;;;;88.72;39.63;;;;;;;;;;2122285;28;20411;-47
2022/01/27 00:22:34;;;;;;;92.85;44.75;;;;;;;;;;2122697;28;20134;-48
2022/01/27 00:23:35;;;;;;;85.15;43.28;;;;;;;;;;2120069;27;20039;-51
2022/01/27 00:24:36;;;;;;;90.72;42.78;;;;;;;;;;2122983;28;20112;-50
2022/01/27 00:25:37;;;;;;;96.53;45.93;;;;;;;;;;2121604;27;20096;-51
2022/01/27 00:26:40;;;;;;;114.80;48.22;;;;;;;;;;2116654;27;20288;-51
2022/01/27 00:27:41;;;;;;;113.57;50.17;;;;;;;;;;2114447;28;20501;-50
2022/01/27 00:28:43;;;;;;;132.32;53.92;;;;;;;;;;2116449;27;20456;-50
2022/01/27 00:29:44;;;;;;;120.53;53.80;;;;;;;;;;2119236;28;20450;-53
2022/01/27 00:30:45;;;;;;;105.80;52.38;;;;;;;;;;2122793;28;20078;-52
2022/01/27 00:31:47;;;;;;;109.45;49.17;;;;;;;;;;2120960;27;20048;-51
2022/01/27 00:32:48;;;;;;;115.78;49.17;;;;;;;;;;2121503;28;20054;-50
2022/01/27 00:33:50;;;;;;;104.88;50.95;;;;;;;;;;2122882;28;20047;-50
2022/01/27 00:34:51;;;;;;;;;;;;;;;;;;2117651;27;20055;-53
2022/01/27 00:35:52;;;;;;;98.68;49.15;;;;;;;;;;2122836;28;20415;-53
2022/01/27 00:36:53;;;;;;;117.40;55.28;;;;;;;;;;2122843;28;20057;-51
2022/01/27 00:37:54;;;;;;;106.07;50.75;;;;;;;;;;2118542;27;20078;-54
2022/01/27 00:38:56;;;;;;;93.70;49.00;;;;;;;;;;2122918;28;20464;-54
2022/01/27 00:39:56;;;;;;;100.22;46.05;;;;;;;;;;2122139;27;20055;-53
2022/01/27 00:40:58;;;;;;;97.93;47.70;;;;;;;;;;2120322;28;20078;-52
2022/01/27 00:41:59;;;;;;;93.03;43.92;;;;;;;;;;2122845;28;20094;-54
2022/01/27 00:43:00;;;;;;;99.05;46.45;;;;;;;;;;2121058;27;20460;-53
2022/01/27 00:44:02;;;;;;;97.43;42.17;;;;;;;;;;2120533;28;20089;-53
2022/01/27 00:45:04;;;;;;;92.28;44.05;;;;;;;;;;2122791;28;20112;-54
2022/01/27 00:46:10;;;;;;;94.85;42.08;;;;;;;;;;2118854;27;20104;-53
2022/01/27 00:47:11;;;;;;;92.97;45.33;;;;;;;;;;2114299;28;20047;-51
2022/01/27 00:48:15;;;;;;;93.20;42.17;;;;;;;;;;2114322;28;20047;-54
2022/01/27 00:49:16;;;;;;;98.97;46.85;;;;;;;;;;2117334;28;20466;-51
2022/01/27 00:50:18;;;;;;;104.20;47.70;;;;;;;;;;2122970;28;20091;-54
2022/01/27 00:51:22;;;;;;;115.78;51.92;;;;;;;;;;2121253;27;20126;-54
2022/01/27 00:52:28;;;;;;;109.75;47.65;;;;;;;;;;2120033;28;20078;-55
2022/01/27 00:53:39;;;;;;;113.57;48.83;;;;;;;;;;2122806;28;20047;-54
2022/01/27 00:54:40;;;;;;;114.32;49.45;;;;;;;;;;2119650;27;20126;-55
2022/01/27 00:55:42;;;;;;;111.78;49.83;;;;;;;;;;2122558;28;20096;-54
2022/01/27 00:56:48;;;;;;;123.90;51.88;;;;;;;;;;2123020;28;20084;-49
2022/01/27 00:58:04;;;;;;;117.22;51.90;;;;;;;;;;2117760;28;20070;-46
2022/01/27 00:59:21;;;;;;;123.85;53.90;;;;;;;;;;2122838;28;20078;-48
2022/01/27 01:00:28;;;;;;;136.93;55.38;;;;;;;;;;2120051;27;20127;-47
2022/01/27 01:01:34;;;;;;;139.07;61.00;;;;;;;;;;2114083;28;20124;-47
2022/01/27 01:02:44;;;;;;;140.80;56.67;;;;;;;;;;2116507;27;20055;-48
2022/01/27 01:03:48;;;;;;;128.52;53.58;;;;;;;;;;2119936;28;20500;-47
2022/01/27 01:05:02;;;;;;;153.40;61.55;;;;;;;;;;2122609;28;20380;-47
2022/01/27 01:06:20;;;;;;;145.80;58.80;;;;;;;;;;2116728;28;20047;-48
2022/01/27 01:07:21;;;;;;;141.63;59.53;;;;;;;;;;2122598;28;20552;-48
2022/01/27 01:14:30;;;;;;;131.93;54.10;;;;;;;;;;2114318;27;20086;-55
2022/01/27 01:15:34;;;;;;;120.25;51.08;;;;;;;;;;2114291;28;20089;-53
2022/01/27 01:16:48;;;;;;;108.78;45.63;;;;;;;;;;2118391;28;20067;-54
2022/01/27 01:17:58;;;;;;;103.82;44.65;;;;;;;;;;2119450;28;20180;-54
2022/01/27 01:19:08;;;;;;;90.05;41.33;;;;;;;;;;2122442;28;20039;-54
2022/01/27 01:22:00;;;;;;;94.03;40.03;;;;;;;;;;2096365;28;20049;-54
2022/01/27 01:29:55;;;;;;;94.28;39.38;;;;;;;;;;2114190;28;20523;-53
2022/01/27 01:31:12;;;;;;;88.97;40.55;;;;;;;;;;2113552;27;20134;-47
2022/01/27 01:32:24;;;;;;;97.35;43.17;;;;;;;;;;2120417;28;20051;-52
2022/01/27 01:33:32;;;;;;;95.65;44.30;;;;;;;;;;2122703;28;20110;-54
2022/01/27 01:34:33;;;;;;;98.63;46.15;;;;;;;;;;2117773;27;20047;-53
2022/01/27 01:35:47;;;;;;;101.53;47.30;;;;;;;;;;2122547;28;20082;-51
2022/01/27 01:36:55;;;;;;;105.80;47.22;;;;;;;;;;2121593;27;20043;-54
2022/01/27 01:37:57;;;;;;;102.40;48.65;;;;;;;;;;2122259;28;20603;-52
2022/01/27 01:38:58;;;;;;;100.50;48.13;;;;;;;;;;2124192;28;20122;-49
2022/01/27 01:39:59;;;;;;;90.50;43.67;;;;;;;;;;2119544;27;20130;-47
2022/01/27 01:41:00;;;;;;;94.80;44.05;;;;;;;;;;2123830;28;20051;-47
2022/01/27 01:42:03;;;;;;;99.28;45.58;;;;;;;;;;2124147;28;20050;-47
2022/01/27 01:43:04;;;;;;;91.40;43.22;;;;;;;;;;2121771;27;20047;-48
2022/01/27 01:44:05;;;;;;;99.80;43.22;;;;;;;;;;2124050;28;20047;-47
2022/01/27 01:45:08;;;;;;;91.50;41.15;;;;;;;;;;2121819;27;20047;-47
2022/01/27 01:46:09;;;;;;;79.35;38.45;;;;;;;;;;2120673;28;20123;-47
2022/01/27 01:47:10;;;;;;;79.35;36.78;;;;;;;;;;2124043;28;20081;-48
2022/01/27 01:48:11;;;;;;;82.00;38.70;;;;;;;;;;2122202;27;20139;-47
2022/01/27 01:49:13;;;;;;;89.40;38.95;;;;;;;;;;2122804;28;20062;-47
2022/01/27 01:50:14;;;;;;;85.15;36.80;;;;;;;;;;2124024;28;20082;-47
2022/01/27 01:51:17;;;;;;;70.53;32.38;;;;;;;;;;2119920;27;20115;-48
2022/01/27 01:52:18;;;;;;;77.00;37.97;;;;;;;;;;2115308;28;20130;-48
2022/01/27 01:53:19;;;;;;;65.17;32.40;;;;;;;;;;2115774;28;20047;-48
2022/01/27 01:54:20;;;;;;;58.58;28.05;;;;;;;;;;2119970;27;20134;-48
2022/01/27 01:55:21;;;;;;;74.25;29.65;;;;;;;;;;2123980;28;20071;-48
2022/01/27 01:56:23;;;;;;;60.60;27.15;;;;;;;;;;2124169;27;20134;-48
2022/01/27 01:57:24;;;;;;;60.38;26.45;;;;;;;;;;2120060;27;20518;-47
2022/01/27 01:58:25;;;;;;;58.03;27.38;;;;;;;;;;2123943;28;20054;-48
2022/01/27 01:59:26;;;;;;;57.40;26.58;;;;;;;;;;2122962;27;20415;-48
2022/01/27 02:00:27;;;;;;;55.72;26.98;;;;;;;;;;2121765;28;20125;-48
2022/01/27 02:01:29;;;;;;;54.10;25.85;;;;;;;;;;2117696;28;20074;-48
2022/01/27 02:02:30;;;;;;;60.92;28.70;;;;;;;;;;2118014;27;20047;-50
2022/01/27 02:03:31;;;;;;;72.15;30.65;;;;;;;;;;2122794;28;20047;-50
2022/01/27 02:04:32;;;;;;;64.68;30.33;;;;;;;;;;2123933;28;20051;-48
2022/01/27 02:05:40;;;;;;;71.97;29.90;;;;;;;;;;2120573;27;20565;-47
2022/01/27 02:06:46;;;;;;;62.92;28.73;;;;;;;;;;2123786;28;20464;-49
2022/01/27 02:07:57;;;;;;;54.88;27.45;;;;;;;;;;2124408;27;20048;-47
2022/01/27 02:09:13;;;;;;;53.93;24.87;;;;;;;;;;2122534;28;20132;-47
2022/01/27 02:10:30;;;;;;;45.35;22.30;;;;;;;;;;2123827;28;20287;-48
2022/01/27 02:18:10;;;;;;;40.00;18.65;;;;;;;;;;2123938;28;20130;-48
2022/01/27 02:19:13;;;;;;;33.80;16.27;;;;;;;;;;2124298;27;20047;-48
2022/01/27 02:20:14;;;;;;;47.88;19.83;;;;;;;;;;2116150;28;20114;-47
2022/01/27 02:21:15;;;;;;;;;;;;;;;;;;2115705;28;20043;-48
2022/01/27 02:22:18;;;;;;;43.83;19.83;;;;;;;;;;2117572;27;19924;-47
2022/01/27 02:23:19;;;;;;;40.72;17.70;;;;;;;;;;2122423;28;20126;-48
2022/01/27 02:24:21;;;;;;;36.00;18.37;;;;;;;;;;2123726;28;20120;-47
2022/01/27 02:25:22;;;;;;;32.53;15.90;;;;;;;;;;2120450;27;20055;-47
2022/01/27 02:26:24;;;;;;;35.03;16.27;;;;;;;;;;2123531;28;20647;-48
2022/01/27 02:27:25;;;;;;;32.85;16.75;;;;;;;;;;2123569;28;20134;-49
2022/01/27 02:28:26;;;;;;;29.27;14.50;;;;;;;;;;2120942;27;20404;-48
2022/01/27 02:29:27;;;;;;;36.33;16.08;;;;;;;;;;2123844;28;20104;-48
2022/01/27 02:30:29;;;;;;;25.60;13.32;;;;;;;;;;2124022;27;20461;-47
2022/01/27 02:31:29;;;;;;;37.45;17.40;;;;;;;;;;2120502;28;20135;-47
2022/01/27 02:32:31;;;;;;;33.50;16.77;;;;;;;;;;2123806;28;20051;-49
2022/01/27 02:33:32;;;;;;;38.42;17.77;;;;;;;;;;2123379;27;20121;-48
2022/01/27 02:34:33;;;;;;;32.95;15.95;;;;;;;;;;2121282;28;20134;-49
2022/01/27 02:35:36;;;;;;;31.42;15.77;;;;;;;;;;2123596;28;20054;-48
2022/01/27 02:36:37;;;;;;;32.38;15.85;;;;;;;;;;2121946;27;20130;-47
2022/01/27 02:37:38;;;;;;;38.93;17.80;;;;;;;;;;2115113;28;20509;-50
2022/01/27 02:38:40;;;;;;;34.63;16.90;;;;;;;;;;2115045;28;20492;-47
2022/01/27 02:39:41;;;;;;;34.97;15.30;;;;;;;;;;2119734;27;20093;-48
2022/01/27 02:40:48;;;;;;;36.42;17.08;;;;;;;;;;2123682;28;20404;-47
2022/01/27 02:41:51;;;;;;;34.05;16.05;;;;;;;;;;2122381;27;20500;-48
2022/01/27 02:42:53;;;;;;;36.47;18.17;;;;;;;;;;2115811;28;20142;-47
2022/01/27 02:43:54;;;;;;;32.15;15.27;;;;;;;;;;2115204;28;20128;-46
2022/01/27 02:45:00;;;;;;;30.00;14.57;;;;;;;;;;2117713;27;23643;-47
2022/01/27 02:46:04;;;;;;;34.20;17.05;;;;;;;;;;2115016;28;20043;-47
2022/01/27 02:47:05;;;;;;;38.42;16.90;;;;;;;;;;2114904;28;20048;-47
2022/01/27 02:48:06;;;;;;;33.40;15.35;;;;;;;;;;2120071;27;20082;-48
2022/01/27 02:49:07;;;;;;;35.15;16.27;;;;;;;;;;2122999;28;20459;-47
2022/01/27 02:50:09;;;;;;;29.35;15.00;;;;;;;;;;2123425;27;20092;-47
2022/01/27 02:51:10;;;;;;;29.65;14.25;;;;;;;;;;2120263;27;20051;-47
2022/01/27 02:52:11;;;;;;;32.90;13.48;;;;;;;;;;2123688;28;20158;-47
2022/01/27 02:53:12;;;;;;;27.45;13.95;;;;;;;;;;2124302;27;20070;-46
2022/01/27 02:54:13;;;;;;;32.77;15.50;;;;;;;;;;2115704;28;20055;-47
2022/01/27 02:55:14;;;;;;;28.70;15.40;;;;;;;;;;2115019;28;20178;-47
2022/01/27 02:56:15;;;;;;;30.92;14.27;;;;;;;;;;2118499;27;20532;-47
2022/01/27 02:57:18;;;;;;;28.88;14.48;;;;;;;;;;2115255;28;20044;-51
2022/01/27 02:58:19;;;;;;;;;;;;;;;;;;2115903;28;20079;-47
2022/01/27 02:59:21;;;;;;;27.38;13.35;;;;;;;;;;2117825;27;19920;-46
2022/01/27 03:00:22;;;;;;;;;;;;;;;;;;2115471;28;20071;-47
2022/01/27 03:01:23;;;;;;;27.67;11.98;;;;;;;;;;2114922;28;19919;-48
2022/01/27 03:02:24;;;;;;;25.27;12.00;;;;;;;;;;2120060;27;20043;-47
2022/01/27 03:03:26;;;;;;;27.58;11.60;;;;;;;;;;2123569;28;20043;-47
2022/01/27 03:04:30;;;;;;;26.00;12.00;;;;;;;;;;2121112;27;20078;-47
2022/01/27 03:05:31;;;;;;;21.48;10.90;;;;;;;;;;2120453;28;20503;-47
2022/01/27 03:06:33;;;;;;;22.33;11.43;;;;;;;;;;2123448;28;20040;-47
2022/01/27 03:07:34;;;;;;;23.08;11.93;;;;;;;;;;2121601;27;20091;-48
2022/01/27 03:08:35;;;;;;;24.05;11.88;;;;;;;;;;2122055;28;20039;-48
2022/01/27 03:09:36;;;;;;;23.50;11.15;;;;;;;;;;2123545;28;20039;-48
2022/01/27 03:10:39;;;;;;;26.30;13.23;;;;;;;;;;2120392;27;20044;-49
2022/01/27 03:11:43;;;;;;;24.90;13.05;;;;;;;;;;2120009;28;20400;-49
2022/01/27 03:12:45;;;;;;;27.35;13.77;;;;;;;;;;2123435;28;20130;-48
2022/01/27 03:13:47;;;;;;;25.75;11.70;;;;;;;;;;2120459;27;20502;-47
2022/01/27 03:14:47;;;;;;;29.90;12.05;;;;;;;;;;2123417;28;20483;-48
2022/01/27 03:15:49;;;;;;;22.80;11.70;;;;;;;;;;2123479;27;20047;-48
2022/01/27 03:16:52;;;;;;;25.10;11.55;;;;;;;;;;2120231;28;20078;-48
2022/01/27 03:17:53;;;;;;;26.23;13.60;;;;;;;;;;2123420;28;20074;-47
2022/01/27 03:18:55;;;;;;;22.48;12.45;;;;;;;;;;2121452;27;20102;-48
2022/01/27 03:19:56;;;;;;;23.00;11.67;;;;;;;;;;2122018;28;20054;-48
2022/01/27 03:20:57;;;;;;;28.33;12.90;;;;;;;;;;2123827;28;20085;-54
2022/01/27 03:22:01;;;;;;;23.42;11.25;;;;;;;;;;2120309;27;20514;-54
2022/01/27 03:23:02;;;;;;;26.70;14.40;;;;;;;;;;2123388;28;20092;-54
2022/01/27 03:24:04;;;;;;;33.70;15.75;;;;;;;;;;2123783;28;20081;-54
2022/01/27 03:25:05;;;;;;;;;;;;;;;;;;2116747;27;20039;-53
2022/01/27 03:26:06;;;;;;;37.58;18.20;;;;;;;;;;2114687;28;20014;-53
2022/01/27 03:27:14;;;;;;;47.17;23.30;;;;;;;;;;2116832;27;20066;-55
2022/01/27 03:28:18;;;;;;;37.60;18.80;;;;;;;;;;2115833;28;20128;-55
2022/01/27 03:29:19;;;;;;;30.63;15.57;;;;;;;;;;2114705;28;20044;-54
2022/01/27 03:30:20;;;;;;;27.85;15.18;;;;;;;;;;2119012;27;20043;-54
2022/01/27 03:31:22;;;;;;;28.13;13.55;;;;;;;;;;2122238;28;20051;-54
2022/01/27 03:32:25;;;;;;;26.52;15.07;;;;;;;;;;2123480;28;20098;-54
2022/01/27 03:33:27;;;;;;;23.73;13.48;;;;;;;;;;2120093;27;20130;-51
2022/01/27 03:34:28;;;;;;;22.48;12.48;;;;;;;;;;2123324;28;20095;-54
2022/01/27 03:35:29;;;;;;;32.73;15.57;;;;;;;;;;2123170;27;20559;-55
2022/01/27 03:36:30;;;;;;;26.10;15.63;;;;;;;;;;2121097;27;20356;-55
2022/01/27 03:37:32;;;;;;;28.75;16.15;;;;;;;;;;2123353;28;20088;-48
2022/01/27 03:38:33;;;;;;;26.00;14.57;;;;;;;;;;2122821;27;20131;-48
2022/01/27 03:39:36;;;;;;;27.60;13.60;;;;;;;;;;2119585;28;20588;-48
2022/01/27 03:40:38;;;;;;;23.35;14.27;;;;;;;;;;2123069;28;20043;-50
2022/01/27 03:41:46;;;;;;;23.10;12.05;;;;;;;;;;2118624;27;20047;-48
2022/01/27 03:43:02;;;;;;;25.05;14.02;;;;;;;;;;2114566;28;20481;-48
2022/01/27 03:44:03;;;;;;;23.77;12.10;;;;;;;;;;2116174;27;20044;-47
2022/01/27 03:45:05;;;;;;;24.40;11.77;;;;;;;;;;2119350;27;20039;-50
2022/01/27 03:46:06;;;;;;;28.27;14.32;;;;;;;;;;2123212;28;20129;-48
2022/01/27 03:47:08;;;;;;;26.27;14.68;;;;;;;;;;2121940;27;20068;-51
2022/01/27 03:48:09;;;;;;;24.38;13.07;;;;;;;;;;2121651;28;20137;-54
2022/01/27 03:49:10;;;;;;;24.92;11.93;;;;;;;;;;2123131;28;20051;-54
2022/01/27 03:50:11;;;;;;;22.92;12.80;;;;;;;;;;2121000;27;20088;-53
2022/01/27 03:51:12;;;;;;;27.27;12.17;;;;;;;;;;2122216;28;20548;-53
2022/01/27 03:52:13;;;;;;;25.45;12.90;;;;;;;;;;2123175;28;20795;-53
2022/01/27 03:53:15;;;;;;;26.25;13.32;;;;;;;;;;2120065;27;20488;-54
2022/01/27 03:54:17;;;;;;;24.25;14.35;;;;;;;;;;2123074;28;20472;-54
2022/01/27 03:55:18;;;;;;;23.95;11.95;;;;;;;;;;2122798;27;20076;-54
2022/01/27 03:56:19;;;;;;;25.48;15.02;;;;;;;;;;2119151;28;20058;-54
2022/01/27 03:57:20;;;;;;;25.95;16.33;;;;;;;;;;2123263;28;20047;-55
2022/01/27 03:58:21;;;;;;;28.33;16.75;;;;;;;;;;2121788;27;20043;-54
2022/01/27 03:59:22;;;;;;;22.63;12.98;;;;;;;;;;2116440;28;20047;-54
2022/01/27 04:00:23;;;;;;;26.48;14.80;;;;;;;;;;2114733;28;20047;-53
2022/01/27 04:01:24;;;;;;;29.10;14.43;;;;;;;;;;2116767;27;20053;-55
2022/01/27 04:02:26;;;;;;;21.60;13.90;;;;;;;;;;2121737;28;20050;-54
2022/01/27 04:03:29;;;;;;;24.42;14.52;;;;;;;;;;2123153;28;20051;-54
2022/01/27 04:04:30;;;;;;;25.30;14.35;;;;;;;;;;2119991;27;20124;-55
2022/01/27 04:05:36;;;;;;;25.95;14.88;;;;;;;;;;2122912;28;20039;-54
2022/01/27 04:06:39;;;;;;;25.23;13.00;;;;;;;;;;2122746;27;20533;-52
2022/01/27 04:07:42;;;;;;;24.55;12.75;;;;;;;;;;2116712;28;20054;-54
2022/01/27 04:08:44;;;;;;;19.80;12.45;;;;;;;;;;2114621;28;20081;-54
2022/01/27 04:09:45;;;;;;;26.23;12.32;;;;;;;;;;2116896;27;20065;-48
2022/01/27 04:10:46;;;;;;;24.67;12.63;;;;;;;;;;2120759;28;20122;-47
2022/01/27 04:11:47;;;;;;;20.80;12.65;;;;;;;;;;2123018;28;20103;-47
2022/01/27 04:12:48;;;;;;;23.33;12.50;;;;;;;;;;2121106;27;20060;-47
2022/01/27 04:13:49;;;;;;;22.63;13.47;;;;;;;;;;2121670;28;20116;-48
2022/01/27 04:14:50;;;;;;;24.52;14.32;;;;;;;;;;2123185;28;20134;-48
2022/01/27 04:15:51;;;;;;;22.50;13.77;;;;;;;;;;2119989;27;20127;-48
2022/01/27 04:16:52;;;;;;;23.85;12.50;;;;;;;;;;2123045;28;20074;-48
2022/01/27 04:17:54;;;;;;;24.50;12.00;;;;;;;;;;2123330;28;20051;-47
2022/01/27 04:18:55;;;;;;;20.35;11.50;;;;;;;;;;2114734;27;20464;-48
2022/01/27 04:19:56;;;;;;;17.60;10.30;;;;;;;;;;2114639;28;20050;-51
2022/01/27 04:20:57;;;;;;;20.02;9.75;;;;;;;;;;2116525;27;20085;-48
2022/01/27 04:21:58;;;;;;;18.52;9.82;;;;;;;;;;2116031;28;20105;-51
2022/01/27 04:22:59;;;;;;;15.70;8.75;;;;;;;;;;2114481;28;20131;-50
2022/01/27 04:24:01;;;;;;;18.90;8.75;;;;;;;;;;2116339;27;20070;-48
2022/01/27 04:25:02;;;;;;;16.55;9.13;;;;;;;;;;2120383;28;20522;-48
2022/01/27 04:26:04;;;;;;;20.15;9.40;;;;;;;;;;2122853;28;20085;-48
2022/01/27 04:27:15;;;;;;;19.52;9.95;;;;;;;;;;2120163;27;20127;-47
2022/01/27 04:28:22;;;;;;;18.05;9.60;;;;;;;;;;2114522;28;20123;-48
2022/01/27 04:29:24;;;;;;;18.33;9.43;;;;;;;;;;2115800;27;20135;-48
2022/01/27 04:30:26;;;;;;;19.42;9.43;;;;;;;;;;2119290;27;20559;-48
2022/01/27 04:31:28;;;;;;;17.83;10.15;;;;;;;;;;2122648;28;20050;-47
2022/01/27 04:32:36;;;;;;;23.65;9.82;;;;;;;;;;2121364;27;20045;-50
2022/01/27 04:33:38;;;;;;;21.10;10.30;;;;;;;;;;2121226;28;20039;-48
2022/01/27 04:34:42;;;;;;;17.48;9.32;;;;;;;;;;2122794;28;20071;-48
2022/01/27 04:35:47;;;;;;;19.70;9.75;;;;;;;;;;2118280;27;20537;-48
2022/01/27 04:36:49;;;;;;;20.20;9.75;;;;;;;;;;2122877;28;20079;-47
2022/01/27 04:38:07;;;;;;;19.17;8.48;;;;;;;;;;2123003;27;20078;-51
2022/01/27 04:39:15;;;;;;;18.15;8.43;;;;;;;;;;2119774;28;20047;-49
2022/01/27 04:40:17;;;;;;;17.58;9.13;;;;;;;;;;2122928;28;20052;-47
2022/01/27 04:41:23;;;;;;;15.98;8.52;;;;;;;;;;2118377;28;20521;-48
2022/01/27 04:42:35;;;;;;;19.33;8.63;;;;;;;;;;2114347;28;20476;-47
2022/01/27 04:43:55;;;;;;;23.63;11.52;;;;;;;;;;2116087;27;20035;-47
2022/01/27 04:45:01;;;;;;;21.38;11.50;;;;;;;;;;2121670;28;20133;-49
2022/01/27 04:46:19;;;;;;;22.20;12.73;;;;;;;;;;2122816;28;20051;-49
2022/01/27 04:47:27;;;;;;;21.40;9.80;;;;;;;;;;2117894;28;20122;-47
2022/01/27 04:48:33;;;;;;;20.73;11.02;;;;;;;;;;2122941;28;20039;-50
2022/01/27 04:49:34;;;;;;;20.27;10.50;;;;;;;;;;2119698;27;20123;-48
2022/01/27 04:50:35;;;;;;;19.30;10.35;;;;;;;;;;2121409;28;20067;-47
2022/01/27 04:51:36;;;;;;;20.38;9.32;;;;;;;;;;2122831;28;20183;-49
2022/01/27 04:52:42;;;;;;;18.52;9.63;;;;;;;;;;2119760;27;20063;-48
2022/01/27 04:53:48;;;;;;;22.48;9.82;;;;;;;;;;2114295;28;20142;-48
2022/01/27 04:54:57;;;;;;;18.95;9.85;;;;;;;;;;2115097;27;20082;-48
2022/01/27 04:56:00;;;;;;;21.83;9.82;;;;;;;;;;2119227;28;20477;-50
2022/01/27 04:57:03;;;;;;;18.98;10.88;;;;;;;;;;2122788;28;20074;-48
2022/01/27 04:58:10;;;;;;;20.08;10.50;;;;;;;;;;2120847;27;20073;-47
2022/01/27 04:59:17;;;;;;;26.23;11.32;;;;;;;;;;2114180;28;20043;-47
2022/01/27 05:00:18;;;;;;;20.55;10.70;;;;;;;;;;2114387;28;20131;-47
2022/01/27 05:01:25;;;;;;;;;;;;;;;;;;2117586;27;20051;-47
2022/01/27 05:02:35;;;;;;;22.48;9.95;;;;;;;;;;2114397;28;19955;-47
2022/01/27 05:03:41;;;;;;;19.90;9.90;;;;;;;;;;2116022;27;20051;-48
2022/01/27 05:04:45;;;;;;;22.15;11.07;;;;;;;;;;2115299;28;20079;-47
2022/01/27 05:05:46;;;;;;;22.10;11.32;;;;;;;;;;2114105;28;20135;-47
2022/01/27 05:06:49;;;;;;;18.80;10.03;;;;;;;;;;2118269;27;20085;-48
2022/01/27 05:07:56;;;;;;;20.10;11.00;;;;;;;;;;2114121;28;20128;-47
2022/01/27 05:08:57;;;;;;;22.65;11.32;;;;;;;;;;2113999;27;20130;-47
2022/01/27 05:10:08;;;;;;;20.95;10.38;;;;;;;;;;2119818;28;20196;-47
2022/01/27 05:11:14;;;;;;;18.88;10.18;;;;;;;;;;2122578;27;20079;-48
2022/01/27 05:12:25;;;;;;;16.00;9.88;;;;;;;;;;2121535;27;20380;-48
2022/01/27 05:13:28;;;;;;;17.98;10.35;;;;;;;;;;2122166;28;20134;-47
2022/01/27 05:14:29;;;;;;;20.25;10.18;;;;;;;;;;2122785;28;20130;-50
2022/01/27 05:15:30;;;;;;;16.55;9.52;;;;;;;;;;2119625;27;20138;-49
2022/01/27 05:16:32;;;;;;;20.67;10.47;;;;;;;;;;2122562;28;20120;-47
2022/01/27 05:17:33;;;;;;;20.73;10.82;;;;;;;;;;2122927;27;20043;-48
2022/01/27 05:18:34;;;;;;;19.98;10.48;;;;;;;;;;2118965;27;20093;-47
2022/01/27 05:19:35;;;;;;;21.42;10.50;;;;;;;;;;2122607;28;20066;-50
2022/01/27 05:20:36;;;;;;;23.65;11.70;;;;;;;;;;2121706;27;21004;-48
2022/01/27 05:21:37;;;;;;;23.65;12.48;;;;;;;;;;2120569;28;20066;-48
2022/01/27 05:22:38;;;;;;;27.17;12.57;;;;;;;;;;2122598;28;20487;-48
2022/01/27 05:23:39;;;;;;;25.30;12.40;;;;;;;;;;2117910;27;20043;-49
2022/01/27 05:24:40;;;;;;;23.75;11.85;;;;;;;;;;2114061;28;20087;-48
2022/01/27 05:25:42;;;;;;;24.70;11.38;;;;;;;;;;2113899;28;20137;-47
2022/01/27 05:26:43;;;;;;;24.33;12.00;;;;;;;;;;2116836;27;20048;-47
2022/01/27 05:27:44;;;;;;;22.25;11.35;;;;;;;;;;2114006;28;20130;-47
2022/01/27 05:28:45;;;;;;;24.70;12.10;;;;;;;;;;2114026;28;20043;-49
2022/01/27 05:29:46;;;;;;;20.85;11.00;;;;;;;;;;2119779;27;20059;-47
2022/01/27 05:30:47;;;;;;;19.43;10.60;;;;;;;;;;2122698;28;20049;-48
2022/01/27 05:31:49;;;;;;;24.92;12.30;;;;;;;;;;2123211;27;20360;-47
2022/01/27 05:32:50;;;;;;;23.83;11.93;;;;;;;;;;2120009;28;20293;-48
2022/01/27 05:33:52;;;;;;;26.07;12.80;;;;;;;;;;2122566;28;20453;-50
2022/01/27 05:34:52;;;;;;;24.77;12.32;;;;;;;;;;2121870;27;20103;-47
2022/01/27 05:35:54;;;;;;;22.43;11.67;;;;;;;;;;2121177;28;20104;-49
2022/01/27 05:36:55;;;;;;;24.38;11.82;;;;;;;;;;2122569;28;20099;-51
2022/01/27 05:37:56;;;;;;;22.00;12.40;;;;;;;;;;2119751;27;20560;-49
2022/01/27 05:38:57;;;;;;;25.30;13.47;;;;;;;;;;2122240;28;20043;-47
2022/01/27 05:39:58;;;;;;;24.08;12.80;;;;;;;;;;2122537;28;20322;-47
2022/01/27 05:41:00;;;;;;;24.58;12.35;;;;;;;;;;2119584;27;20071;-55
2022/01/27 05:42:00;;;;;;;;;;;;;;;;;;2123123;28;20194;-54
2022/01/27 05:43:02;;;;;;;26.15;12.02;;;;;;;;;;2121275;27;20055;-54
2022/01/27 05:44:03;;;;;;;27.48;14.00;;;;;;;;;;2117837;28;20047;-55
2022/01/27 05:45:05;;;;;;;29.70;15.30;;;;;;;;;;2122482;28;20428;-52
2022/01/27 05:46:06;;;;;;;28.55;14.43;;;;;;;;;;2121552;27;20083;-55
2022/01/27 05:47:07;;;;;;;24.85;12.88;;;;;;;;;;2120317;28;20047;-54
2022/01/27 05:48:08;;;;;;;25.05;13.05;;;;;;;;;;2122566;28;20043;-54
2022/01/27 05:49:09;;;;;;;22.80;12.85;;;;;;;;;;2119396;27;20135;-54
2022/01/27 05:50:10;;;;;;;23.95;13.25;;;;;;;;;;2121071;28;20089;-55
2022/01/27 05:51:12;;;;;;;26.02;13.02;;;;;;;;;;2122372;28;20142;-55
2022/01/27 05:52:14;;;;;;;25.02;12.60;;;;;;;;;;2119292;27;20051;-55
2022/01/27 05:53:15;;;;;;;23.88;12.32;;;;;;;;;;2122428;28;20047;-55
2022/01/27 05:54:16;;;;;;;24.52;11.85;;;;;;;;;;2122454;28;20074;-53
2022/01/27 05:55:17;;;;;;;26.27;12.73;;;;;;;;;;2117038;28;20135;-54
2022/01/27 05:56:19;;;;;;;24.27;12.27;;;;;;;;;;2122413;28;20499;-55
2022/01/27 05:57:20;;;;;;;28.38;14.02;;;;;;;;;;2121084;27;20412;-55
2022/01/27 05:58:21;;;;;;;27.92;14.05;;;;;;;;;;2120060;28;20047;-55
2022/01/27 05:59:22;;;;;;;27.05;13.88;;;;;;;;;;2122279;28;20404;-54
2022/01/27 06:00:24;;;;;;;28.65;12.70;;;;;;;;;;2119049;27;20042;-54
2022/01/27 06:01:26;;;;;;;25.17;12.65;;;;;;;;;;2115524;28;20145;-55
2022/01/27 06:02:27;;;;;;;28.23;13.68;;;;;;;;;;2113892;28;20063;-55
2022/01/27 06:03:28;;;;;;;28.90;13.70;;;;;;;;;;2116758;27;20051;-53
2022/01/27 06:04:29;;;;;;;22.30;12.95;;;;;;;;;;2113871;28;20284;-54
2022/01/27 06:05:31;;;;;;;26.10;13.70;;;;;;;;;;2113877;28;20048;-55
2022/01/27 06:06:32;;;;;;;23.88;12.63;;;;;;;;;;2118440;27;20067;-54
2022/01/27 06:07:33;;;;;;;24.33;12.90;;;;;;;;;;2122373;28;20039;-54
2022/01/27 06:08:35;;;;;;;24.27;13.35;;;;;;;;;;2121990;27;20507;-55
2022/01/27 06:09:35;;;;;;;23.75;12.15;;;;;;;;;;2118273;28;20126;-54
2022/01/27 06:10:37;;;;;;;21.98;12.35;;;;;;;;;;2122219;28;20043;-53
2022/01/27 06:11:38;;;;;;;23.77;11.88;;;;;;;;;;2121342;27;20099;-54
2022/01/27 06:12:46;;;;;;;24.83;12.98;;;;;;;;;;2114702;28;20130;-56
2022/01/27 06:13:48;;;;;;;28.13;12.75;;;;;;;;;;2113780;28;20127;-54
2022/01/27 06:14:49;;;;;;;;;;;;;;;;;;2117313;27;20046;-54
2022/01/27 06:15:50;;;;;;;20.73;8.57;;;;;;;;;;2114258;28;19926;-53
2022/01/27 06:16:51;;;;;;;23.30;11.27;;;;;;;;;;2113818;28;20058;-54
2022/01/27 06:17:52;;;;;;;25.20;11.95;;;;;;;;;;2118569;27;20050;-53
2022/01/27 06:18:53;;;;;;;22.33;11.82;;;;;;;;;;2122195;28;20550;-53
2022/01/27 06:19:55;;;;;;;22.48;11.50;;;;;;;;;;2122984;27;20519;-51
2022/01/27 06:21:00;;;;;;;23.92;11.40;;;;;;;;;;2118666;28;20054;-53
2022/01/27 06:22:08;;;;;;;21.52;11.50;;;;;;;;;;2122179;28;20508;-54
2022/01/27 06:23:09;;;;;;;19.33;11.55;;;;;;;;;;2119424;27;20445;-54
2022/01/27 06:24:10;;;;;;;26.63;12.38;;;;;;;;;;2114668;28;20135;-55
2022/01/27 06:25:12;;;;;;;22.45;11.90;;;;;;;;;;2115350;28;20122;-53
2022/01/27 06:26:14;;;;;;;23.13;11.85;;;;;;;;;;2120207;27;20055;-54
2022/01/27 06:27:15;;;;;;;26.83;12.65;;;;;;;;;;2115328;28;20063;-54
2022/01/27 06:28:17;;;;;;;23.65;12.57;;;;;;;;;;2114922;27;20075;-54
2022/01/27 06:29:17;;;;;;;26.10;12.60;;;;;;;;;;2116999;28;20076;-47
2022/01/27 06:30:19;;;;;;;25.07;13.00;;;;;;;;;;2115209;28;20048;-47